Aransas Pass — WDF5061 — position and weather

sailwx.info

Track history (hours):
 
Tides and Currents Weather Stations Pressure Air Temp Water Temp Dewpoint Dewpoint Depression Visibility Wind Speed Wind Dir Waves Ship Positions

Aransas Pass

Owner: Higman Barge Lines, Inc., Orange, TX. More information available from US FCC via Universal Licensing System and Coast Guard Vessel Documentation Center.

Last reported at 2014-Nov-21 02:30 UTC. Time now 2014-Nov-23 12:26 UTC.
Position N 29°57' W 090°09'.

Length 26 m; draft 3 m.

Type: Towing. MMSI: 367458930.

Date/timePositionNaut miles runAvg speedWind from/ knotsBaromVisibWave heightAir tempDewpointWater temp
2014-Nov-21 02:30N 29°57' W 090°09'4 4.2
2014-Nov-21 01:33N 29°55' W 090°05'5 4.5
2014-Nov-21 00:31N 29°56' W 089°60'2 1.5
2014-Nov-20 23:32N 29°55' W 089°59'1 1.2
2014-Nov-20 22:32N 29°54' W 089°60'  
2014-Nov-15 18:32N 29°55' W 090°06'5 5.2
2014-Nov-15 17:30N 29°57' W 090°01'3 2.2
2014-Nov-15 16:17N 29°55' W 089°59'0 0.2
2014-Nov-15 15:17N 29°55' W 089°59'31 1.5
2014-Nov-14 18:14N 29°33' W 090°25'3 3.5
2014-Nov-14 17:15N 29°34' W 090°29'5 4.9
2014-Nov-14 16:16N 29°34' W 090°34'3 4.3
2014-Nov-14 15:33N 29°35' W 090°38'18 3.6
2014-Nov-14 10:25N 29°36' W 090°59'4 4.8
2014-Nov-14 09:32N 29°37' W 091°03'4 4.2
2014-Nov-14 08:33N 29°39' W 091°08'4 3.7
2014-Nov-14 07:33N 29°41' W 091°11'1 1.1
2014-Nov-14 06:33N 29°41' W 091°12'5 4.6
2014-Nov-14 05:33N 29°39' W 091°17'4 4.3
2014-Nov-14 04:33N 29°39' W 091°22'9 4.3
2014-Nov-14 02:24N 29°42' W 091°32'  
2014-Nov-11 22:15N 29°26' W 094°50'6 8.1
2014-Nov-11 21:33N 29°31' W 094°53'7 7.3
2014-Nov-11 20:33N 29°37' W 094°57'7 6.7
2014-Nov-11 19:33N 29°43' W 095°01'5 4.4
2014-Nov-11 18:31N 29°45' W 095°06'2 2.2
2014-Nov-11 17:33N 29°44' W 095°08'2 1.6
2014-Nov-11 16:33N 29°45' W 095°06'  
Track history (hours):
 
Tides and Currents Weather Stations Pressure Air Temp Water Temp Dewpoint Dewpoint Depression Visibility Wind Speed Wind Dir Waves Ship Positions

Aransas Pass

Owner: Higman Barge Lines, Inc., Orange, TX. More information available from US FCC via Universal Licensing System and Coast Guard Vessel Documentation Center.

Last reported at 2014-Nov-21 02:30 UTC. Time now 2014-Nov-23 12:26 UTC.
Position N 29°57' W 090°09'.

Length 26 m; draft 3 m.

Type: Towing. MMSI: 367458930.

Date/timePositionNaut miles runAvg speedWind from/ knotsBaromVisibWave heightAir tempDewpointWater temp
2014-Nov-21 02:30N 29°57' W 090°09'4 4.2
2014-Nov-21 01:33N 29°55' W 090°05'5 4.5
2014-Nov-21 00:31N 29°56' W 089°60'2 1.5
2014-Nov-20 23:32N 29°55' W 089°59'1 1.2
2014-Nov-20 22:32N 29°54' W 089°60'  
2014-Nov-15 18:32N 29°55' W 090°06'5 5.2
2014-Nov-15 17:30N 29°57' W 090°01'3 2.2
2014-Nov-15 16:17N 29°55' W 089°59'0 0.2
2014-Nov-15 15:17N 29°55' W 089°59'31 1.5
2014-Nov-14 18:14N 29°33' W 090°25'3 3.5
2014-Nov-14 17:15N 29°34' W 090°29'5 4.9
2014-Nov-14 16:16N 29°34' W 090°34'3 4.3
2014-Nov-14 15:33N 29°35' W 090°38'18 3.6
2014-Nov-14 10:25N 29°36' W 090°59'4 4.8
2014-Nov-14 09:32N 29°37' W 091°03'4 4.2
2014-Nov-14 08:33N 29°39' W 091°08'4 3.7
2014-Nov-14 07:33N 29°41' W 091°11'1 1.1
2014-Nov-14 06:33N 29°41' W 091°12'5 4.6
2014-Nov-14 05:33N 29°39' W 091°17'4 4.3
2014-Nov-14 04:33N 29°39' W 091°22'9 4.3
2014-Nov-14 02:24N 29°42' W 091°32'  
2014-Nov-11 22:15N 29°26' W 094°50'6 8.1
2014-Nov-11 21:33N 29°31' W 094°53'7 7.3
2014-Nov-11 20:33N 29°37' W 094°57'7 6.7
2014-Nov-11 19:33N 29°43' W 095°01'5 4.4
2014-Nov-11 18:31N 29°45' W 095°06'2 2.2
2014-Nov-11 17:33N 29°44' W 095°08'2 1.6
2014-Nov-11 16:33N 29°45' W 095°06'  

Dump ship's entire track history